sensor_id;sensor_type;location;lat;lon;timestamp;temperature;humidity
30336;DHT22;17142;47.990;7.846;2023-11-21T06:21:37;7.90;99.90
30336;DHT22;17142;47.990;7.846;2023-11-21T06:24:04;7.90;99.90
30336;DHT22;17142;47.990;7.846;2023-11-21T06:26:32;8.00;99.90
30336;DHT22;17142;47.990;7.846;2023-11-21T06:29:00;8.00;99.90
30336;DHT22;17142;47.990;7.846;2023-11-21T06:31:30;7.90;99.90
30336;DHT22;17142;47.990;7.846;2023-11-21T06:33:58;7.90;99.90
30336;DHT22;17142;47.990;7.846;2023-11-21T06:36:25;7.90;99.90
30336;DHT22;17142;47.990;7.846;2023-11-21T06:38:52;8.00;99.90
30336;DHT22;17142;47.990;7.846;2023-11-21T06:41:17;8.00;99.90
30336;DHT22;17142;47.990;7.846;2023-11-21T06:43:43;7.90;99.90
30336;DHT22;17142;47.990;7.846;2023-11-21T06:46:12;7.90;99.90
30336;DHT22;17142;47.990;7.846;2023-11-21T06:48:43;7.90;99.90
30336;DHT22;17142;47.990;7.846;2023-11-21T06:51:09;7.90;99.90
30336;DHT22;17142;47.990;7.846;2023-11-21T06:53:36;7.90;99.90
30336;DHT22;17142;47.990;7.846;2023-11-21T06:56:02;7.90;99.90
30336;DHT22;17142;47.990;7.846;2023-11-21T06:58:28;7.90;99.90
30336;DHT22;17142;47.990;7.846;2023-11-21T07:00:54;7.90;99.90
30336;DHT22;17142;47.990;7.846;2023-11-21T07:03:23;7.90;99.90
30336;DHT22;17142;47.990;7.846;2023-11-21T07:05:49;7.90;99.90
30336;DHT22;17142;47.990;7.846;2023-11-21T07:08:15;7.90;99.90
30336;DHT22;17142;47.990;7.846;2023-11-21T07:10:43;7.90;99.90
30336;DHT22;17142;47.990;7.846;2023-11-21T07:13:12;7.90;99.90
30336;DHT22;17142;47.990;7.846;2023-11-21T07:15:38;7.90;99.90
30336;DHT22;17142;47.990;7.846;2023-11-21T07:18:03;7.90;99.90
30336;DHT22;17142;47.990;7.846;2023-11-21T07:20:29;8.00;99.90
30336;DHT22;17142;47.990;7.846;2023-11-21T07:22:55;8.00;99.90
30336;DHT22;17142;47.990;7.846;2023-11-21T07:25:21;8.00;99.90
30336;DHT22;17142;47.990;7.846;2023-11-21T07:27:47;8.00;99.90
30336;DHT22;17142;47.990;7.846;2023-11-21T07:30:13;8.10;99.90
30336;DHT22;17142;47.990;7.846;2023-11-21T07:32:39;8.10;99.90
30336;DHT22;17142;47.990;7.846;2023-11-21T07:35:05;8.20;99.90
30336;DHT22;17142;47.990;7.846;2023-11-21T07:37:31;8.20;99.90
30336;DHT22;17142;47.990;7.846;2023-11-21T07:39:56;8.20;99.90
30336;DHT22;17142;47.990;7.846;2023-11-21T07:42:23;8.30;99.90
30336;DHT22;17142;47.990;7.846;2023-11-21T07:44:52;8.30;99.90
30336;DHT22;17142;47.990;7.846;2023-11-21T07:47:20;8.30;99.90
30336;DHT22;17142;47.990;7.846;2023-11-21T07:49:45;8.30;99.90
30336;DHT22;17142;47.990;7.846;2023-11-21T07:52:13;8.40;99.90
30336;DHT22;17142;47.990;7.846;2023-11-21T07:54:41;8.50;99.90
30336;DHT22;17142;47.990;7.846;2023-11-21T07:57:07;8.50;99.90
30336;DHT22;17142;47.990;7.846;2023-11-21T07:59:33;8.60;99.90
30336;DHT22;17142;47.990;7.846;2023-11-21T08:01:58;8.60;99.90
30336;DHT22;17142;47.990;7.846;2023-11-21T08:04:27;8.60;99.90
30336;DHT22;17142;47.990;7.846;2023-11-21T08:06:57;8.70;99.90
30336;DHT22;17142;47.990;7.846;2023-11-21T08:09:23;8.70;99.90
30336;DHT22;17142;47.990;7.846;2023-11-21T08:11:51;8.70;99.90
30336;DHT22;17142;47.990;7.846;2023-11-21T08:14:20;8.70;99.90
30336;DHT22;17142;47.990;7.846;2023-11-21T08:16:50;8.70;99.90
30336;DHT22;17142;47.990;7.846;2023-11-21T08:19:16;8.80;99.90
30336;DHT22;17142;47.990;7.846;2023-11-21T08:21:43;8.80;99.90
30336;DHT22;17142;47.990;7.846;2023-11-21T08:24:12;8.90;99.90
30336;DHT22;17142;47.990;7.846;2023-11-21T08:26:40;8.90;99.90
30336;DHT22;17142;47.990;7.846;2023-11-21T08:29:08;8.90;99.90
30336;DHT22;17142;47.990;7.846;2023-11-21T08:31:34;9.00;99.90
30336;DHT22;17142;47.990;7.846;2023-11-21T08:34:00;9.00;99.90
30336;DHT22;17142;47.990;7.846;2023-11-21T08:36:28;9.00;99.90
30336;DHT22;17142;47.990;7.846;2023-11-21T08:38:54;8.90;99.90
30336;DHT22;17142;47.990;7.846;2023-11-21T08:41:20;8.90;99.90
30336;DHT22;17142;47.990;7.846;2023-11-21T08:43:49;8.90;99.90
30336;DHT22;17142;47.990;7.846;2023-11-21T08:46:15;8.80;99.90
30336;DHT22;17142;47.990;7.846;2023-11-21T08:48:43;8.90;99.90
30336;DHT22;17142;47.990;7.846;2023-11-21T08:51:10;8.90;99.90
30336;DHT22;17142;47.990;7.846;2023-11-21T08:53:39;9.00;99.90
30336;DHT22;17142;47.990;7.846;2023-11-21T08:56:05;9.00;99.90
30336;DHT22;17142;47.990;7.846;2023-11-21T08:58:34;9.10;99.90
30336;DHT22;17142;47.990;7.846;2023-11-21T09:01:03;9.20;99.90
30336;DHT22;17142;47.990;7.846;2023-11-21T09:03:28;9.30;99.90
30336;DHT22;17142;47.990;7.846;2023-11-21T09:05:54;9.40;99.90
30336;DHT22;17142;47.990;7.846;2023-11-21T09:08:19;9.40;99.90
30336;DHT22;17142;47.990;7.846;2023-11-21T09:10:47;9.40;99.90
30336;DHT22;17142;47.990;7.846;2023-11-21T09:13:13;9.50;99.90
30336;DHT22;17142;47.990;7.846;2023-11-21T09:15:38;9.60;99.90
30336;DHT22;17142;47.990;7.846;2023-11-21T09:18:05;9.60;99.90
30336;DHT22;17142;47.990;7.846;2023-11-21T09:20:33;9.70;99.90
30336;DHT22;17142;47.990;7.846;2023-11-21T09:22:59;9.70;99.90
30336;DHT22;17142;47.990;7.846;2023-11-21T09:25:24;9.70;99.90
30336;DHT22;17142;47.990;7.846;2023-11-21T09:27:50;9.70;99.90
30336;DHT22;17142;47.990;7.846;2023-11-21T09:30:18;9.70;99.90
30336;DHT22;17142;47.990;7.846;2023-11-21T09:32:43;9.60;99.90
30336;DHT22;17142;47.990;7.846;2023-11-21T09:35:10;9.60;99.90
30336;DHT22;17142;47.990;7.846;2023-11-21T09:37:37;9.50;99.90
30336;DHT22;17142;47.990;7.846;2023-11-21T09:40:04;9.50;99.90
30336;DHT22;17142;47.990;7.846;2023-11-21T09:42:36;9.50;99.90
30336;DHT22;17142;47.990;7.846;2023-11-21T09:47:44;9.30;99.90
30336;DHT22;17142;47.990;7.846;2023-11-21T09:50:11;9.30;99.90
30336;DHT22;17142;47.990;7.846;2023-11-21T09:52:57;9.30;99.90
30336;DHT22;17142;47.990;7.846;2023-11-21T09:55:27;9.30;99.90
30336;DHT22;17142;47.990;7.846;2023-11-21T09:57:56;9.30;99.90
30336;DHT22;17142;47.990;7.846;2023-11-21T10:00:22;9.40;99.90
30336;DHT22;17142;47.990;7.846;2023-11-21T10:02:49;9.40;99.90
30336;DHT22;17142;47.990;7.846;2023-11-21T10:05:16;9.40;99.90
30336;DHT22;17142;47.990;7.846;2023-11-21T10:07:49;9.30;99.90
30336;DHT22;17142;47.990;7.846;2023-11-21T10:10:18;9.20;99.90
30336;DHT22;17142;47.990;7.846;2023-11-21T10:12:49;9.10;99.90
30336;DHT22;17142;47.990;7.846;2023-11-21T10:15:21;9.00;99.90
30336;DHT22;17142;47.990;7.846;2023-11-21T10:17:49;9.00;99.90
30336;DHT22;17142;47.990;7.846;2023-11-21T10:20:16;9.10;99.90
30336;DHT22;17142;47.990;7.846;2023-11-21T10:22:42;9.10;99.90
30336;DHT22;17142;47.990;7.846;2023-11-21T10:25:12;9.30;99.90
30336;DHT22;17142;47.990;7.846;2023-11-21T10:27:46;9.40;99.90
30336;DHT22;17142;47.990;7.846;2023-11-21T10:30:14;9.50;99.90
30336;DHT22;17142;47.990;7.846;2023-11-21T10:32:42;9.60;99.90
30336;DHT22;17142;47.990;7.846;2023-11-21T10:35:09;9.60;99.90
30336;DHT22;17142;47.990;7.846;2023-11-21T10:37:40;9.60;99.90
30336;DHT22;17142;47.990;7.846;2023-11-21T10:40:10;9.60;99.90
30336;DHT22;17142;47.990;7.846;2023-11-21T10:42:41;9.50;99.90
30336;DHT22;17142;47.990;7.846;2023-11-21T10:45:09;9.50;99.90
30336;DHT22;17142;47.990;7.846;2023-11-21T10:47:40;9.50;99.90
30336;DHT22;17142;47.990;7.846;2023-11-21T10:50:06;9.60;99.90
30336;DHT22;17142;47.990;7.846;2023-11-21T10:52:40;9.70;99.90
30336;DHT22;17142;47.990;7.846;2023-11-21T10:55:21;9.60;99.90
30336;DHT22;17142;47.990;7.846;2023-11-21T10:57:49;9.60;99.90
30336;DHT22;17142;47.990;7.846;2023-11-21T11:00:19;9.60;99.90
30336;DHT22;17142;47.990;7.846;2023-11-21T11:02:49;9.50;99.90
30336;DHT22;17142;47.990;7.846;2023-11-21T11:05:19;9.40;99.90
30336;DHT22;17142;47.990;7.846;2023-11-21T11:07:50;9.30;99.90
30336;DHT22;17142;47.990;7.846;2023-11-21T11:10:22;9.20;99.90
30336;DHT22;17142;47.990;7.846;2023-11-21T11:12:54;9.10;99.90
30336;DHT22;17142;47.990;7.846;2023-11-21T11:15:23;9.10;99.90
30336;DHT22;17142;47.990;7.846;2023-11-21T11:17:52;9.10;99.90
30336;DHT22;17142;47.990;7.846;2023-11-21T11:20:24;9.20;99.90
30336;DHT22;17142;47.990;7.846;2023-11-21T11:35:01;9.00;99.90
30336;DHT22;17142;47.990;7.846;2023-11-21T11:37:31;8.80;99.90
30336;DHT22;17142;47.990;7.846;2023-11-21T11:39:58;8.80;99.90
30336;DHT22;17142;47.990;7.846;2023-11-21T11:42:27;8.80;99.90
30336;DHT22;17142;47.990;7.846;2023-11-21T11:44:53;8.80;99.90
30336;DHT22;17142;47.990;7.846;2023-11-21T11:47:24;8.80;99.90
30336;DHT22;17142;47.990;7.846;2023-11-21T11:50:07;8.80;99.90
30336;DHT22;17142;47.990;7.846;2023-11-21T11:52:42;8.90;99.90
30336;DHT22;17142;47.990;7.846;2023-11-21T11:55:11;8.90;99.90
30336;DHT22;17142;47.990;7.846;2023-11-21T11:57:38;8.80;99.90
30336;DHT22;17142;47.990;7.846;2023-11-21T12:00:33;8.70;99.90
30336;DHT22;17142;47.990;7.846;2023-11-21T12:03:03;8.70;99.90
30336;DHT22;17142;47.990;7.846;2023-11-21T12:05:31;8.70;99.90
30336;DHT22;17142;47.990;7.846;2023-11-21T12:08:00;8.70;99.90
30336;DHT22;17142;47.990;7.846;2023-11-21T12:10:33;8.70;99.90
30336;DHT22;17142;47.990;7.846;2023-11-21T12:15:31;8.70;99.90
30336;DHT22;17142;47.990;7.846;2023-11-21T12:17:57;8.70;99.90
30336;DHT22;17142;47.990;7.846;2023-11-21T12:20:25;8.80;99.90
30336;DHT22;17142;47.990;7.846;2023-11-21T12:22:57;8.80;99.90
30336;DHT22;17142;47.990;7.846;2023-11-21T12:25:28;8.70;99.90
30336;DHT22;17142;47.990;7.846;2023-11-21T12:27:55;8.70;99.90
30336;DHT22;17142;47.990;7.846;2023-11-21T12:30:23;8.70;99.90
30336;DHT22;17142;47.990;7.846;2023-11-21T12:32:53;8.70;99.90
30336;DHT22;17142;47.990;7.846;2023-11-21T12:35:20;8.80;99.90
30336;DHT22;17142;47.990;7.846;2023-11-21T12:37:49;8.80;99.90
30336;DHT22;17142;47.990;7.846;2023-11-21T12:40:16;8.80;99.90
30336;DHT22;17142;47.990;7.846;2023-11-21T12:42:43;8.80;99.90
30336;DHT22;17142;47.990;7.846;2023-11-21T12:45:24;8.80;99.90
30336;DHT22;17142;47.990;7.846;2023-11-21T12:50:28;8.70;99.90
30336;DHT22;17142;47.990;7.846;2023-11-21T12:53:01;8.70;99.90
30336;DHT22;17142;47.990;7.846;2023-11-21T12:55:32;8.70;99.90
30336;DHT22;17142;47.990;7.846;2023-11-21T12:58:01;8.70;99.90
30336;DHT22;17142;47.990;7.846;2023-11-21T13:00:45;8.70;99.90
30336;DHT22;17142;47.990;7.846;2023-11-21T13:03:12;8.70;99.90
30336;DHT22;17142;47.990;7.846;2023-11-21T13:05:41;8.80;99.90
30336;DHT22;17142;47.990;7.846;2023-11-21T13:08:16;8.80;99.90
30336;DHT22;17142;47.990;7.846;2023-11-21T13:10:45;8.90;99.90
30336;DHT22;17142;47.990;7.846;2023-11-21T13:13:15;9.00;99.90
30336;DHT22;17142;47.990;7.846;2023-11-21T13:15:53;9.00;99.90
30336;DHT22;17142;47.990;7.846;2023-11-21T13:18:23;9.10;99.90
30336;DHT22;17142;47.990;7.846;2023-11-21T13:20:49;9.10;99.90
30336;DHT22;17142;47.990;7.846;2023-11-21T13:23:16;9.10;99.90
30336;DHT22;17142;47.990;7.846;2023-11-21T13:25:42;9.00;99.90
30336;DHT22;17142;47.990;7.846;2023-11-21T13:28:11;9.00;99.90
30336;DHT22;17142;47.990;7.846;2023-11-21T13:30:38;8.90;99.90
30336;DHT22;17142;47.990;7.846;2023-11-21T13:33:06;8.90;99.90
30336;DHT22;17142;47.990;7.846;2023-11-21T13:35:39;8.90;99.90
30336;DHT22;17142;47.990;7.846;2023-11-21T13:38:16;9.00;99.90
30336;DHT22;17142;47.990;7.846;2023-11-21T13:40:55;9.00;99.90
30336;DHT22;17142;47.990;7.846;2023-11-21T13:43:23;9.00;99.90
30336;DHT22;17142;47.990;7.846;2023-11-21T13:45:51;9.00;99.90
30336;DHT22;17142;47.990;7.846;2023-11-21T13:48:23;9.00;99.90
30336;DHT22;17142;47.990;7.846;2023-11-21T13:51:06;9.00;99.90
30336;DHT22;17142;47.990;7.846;2023-11-21T13:53:46;9.10;99.90
30336;DHT22;17142;47.990;7.846;2023-11-21T13:56:17;9.20;99.90
30336;DHT22;17142;47.990;7.846;2023-11-21T13:58:49;9.20;99.90
30336;DHT22;17142;47.990;7.846;2023-11-21T14:01:20;9.30;99.90
30336;DHT22;17142;47.990;7.846;2023-11-21T14:04:06;9.30;99.90
30336;DHT22;17142;47.990;7.846;2023-11-21T14:06:48;9.30;99.90
30336;DHT22;17142;47.990;7.846;2023-11-21T14:09:23;9.20;99.90
30336;DHT22;17142;47.990;7.846;2023-11-21T14:12:01;9.20;99.90
30336;DHT22;17142;47.990;7.846;2023-11-21T14:14:31;9.20;99.90
30336;DHT22;17142;47.990;7.846;2023-11-21T14:17:00;9.20;99.90
30336;DHT22;17142;47.990;7.846;2023-11-21T14:19:25;9.20;99.90
30336;DHT22;17142;47.990;7.846;2023-11-21T14:21:59;9.20;99.90
30336;DHT22;17142;47.990;7.846;2023-11-21T14:24:25;9.20;99.90
30336;DHT22;17142;47.990;7.846;2023-11-21T14:26:51;9.20;99.90
30336;DHT22;17142;47.990;7.846;2023-11-21T14:29:18;9.10;99.90
30336;DHT22;17142;47.990;7.846;2023-11-21T14:31:47;9.00;99.90
30336;DHT22;17142;47.990;7.846;2023-11-21T14:34:16;9.00;99.90
30336;DHT22;17142;47.990;7.846;2023-11-21T14:36:42;8.90;99.90
30336;DHT22;17142;47.990;7.846;2023-11-21T14:39:10;9.00;99.90
30336;DHT22;17142;47.990;7.846;2023-11-21T14:41:48;8.90;99.90
30336;DHT22;17142;47.990;7.846;2023-11-21T14:44:14;8.90;99.90
30336;DHT22;17142;47.990;7.846;2023-11-21T14:46:41;8.90;99.90
30336;DHT22;17142;47.990;7.846;2023-11-21T14:49:13;8.90;99.90
30336;DHT22;17142;47.990;7.846;2023-11-21T14:51:54;8.90;99.90
30336;DHT22;17142;47.990;7.846;2023-11-21T14:54:29;8.90;99.90
30336;DHT22;17142;47.990;7.846;2023-11-21T14:57:28;8.80;99.90
30336;DHT22;17142;47.990;7.846;2023-11-21T14:59:53;8.80;99.90
30336;DHT22;17142;47.990;7.846;2023-11-21T15:02:23;8.80;99.90
30336;DHT22;17142;47.990;7.846;2023-11-21T15:05:09;8.80;99.90
30336;DHT22;17142;47.990;7.846;2023-11-21T15:07:40;8.90;99.90
30336;DHT22;17142;47.990;7.846;2023-11-21T15:10:07;8.80;99.90
30336;DHT22;17142;47.990;7.846;2023-11-21T15:12:40;8.80;99.90
30336;DHT22;17142;47.990;7.846;2023-11-21T15:15:06;8.90;99.90
30336;DHT22;17142;47.990;7.846;2023-11-21T15:17:36;8.80;99.90
30336;DHT22;17142;47.990;7.846;2023-11-21T15:20:03;8.80;99.90
30336;DHT22;17142;47.990;7.846;2023-11-21T15:22:34;8.80;99.90
30336;DHT22;17142;47.990;7.846;2023-11-21T15:25:02;8.80;99.90
30336;DHT22;17142;47.990;7.846;2023-11-21T15:27:33;8.80;99.90
30336;DHT22;17142;47.990;7.846;2023-11-21T15:30:02;8.80;99.90
30336;DHT22;17142;47.990;7.846;2023-11-21T15:32:30;8.80;99.90
30336;DHT22;17142;47.990;7.846;2023-11-21T15:34:56;8.80;99.90
30336;DHT22;17142;47.990;7.846;2023-11-21T15:37:21;8.70;99.90
30336;DHT22;17142;47.990;7.846;2023-11-21T15:39:47;8.80;99.90
30336;DHT22;17142;47.990;7.846;2023-11-21T15:42:13;8.70;99.90
30336;DHT22;17142;47.990;7.846;2023-11-21T15:44:39;8.80;99.90
30336;DHT22;17142;47.990;7.846;2023-11-21T15:47:09;8.70;99.90
30336;DHT22;17142;47.990;7.846;2023-11-21T15:49:35;8.70;99.90
30336;DHT22;17142;47.990;7.846;2023-11-21T15:52:02;8.70;99.90
30336;DHT22;17142;47.990;7.846;2023-11-21T15:54:29;8.70;99.90
30336;DHT22;17142;47.990;7.846;2023-11-21T15:56:56;8.70;99.90
30336;DHT22;17142;47.990;7.846;2023-11-21T15:59:28;8.70;99.90
30336;DHT22;17142;47.990;7.846;2023-11-21T16:01:57;8.60;99.90
30336;DHT22;17142;47.990;7.846;2023-11-21T16:04:23;8.60;99.90
30336;DHT22;17142;47.990;7.846;2023-11-21T16:06:52;8.60;99.90
30336;DHT22;17142;47.990;7.846;2023-11-21T16:09:18;8.60;99.90
30336;DHT22;17142;47.990;7.846;2023-11-21T16:11:57;8.60;99.90
30336;DHT22;17142;47.990;7.846;2023-11-21T16:14:30;8.60;99.90
30336;DHT22;17142;47.990;7.846;2023-11-21T16:17:09;8.50;99.90
30336;DHT22;17142;47.990;7.846;2023-11-21T16:19:35;8.60;99.90
30336;DHT22;17142;47.990;7.846;2023-11-21T16:22:03;8.60;99.90
30336;DHT22;17142;47.990;7.846;2023-11-21T16:24:29;8.60;99.90
30336;DHT22;17142;47.990;7.846;2023-11-21T16:26:58;8.50;99.90
30336;DHT22;17142;47.990;7.846;2023-11-21T16:29:23;8.50;99.90
30336;DHT22;17142;47.990;7.846;2023-11-21T16:31:51;8.60;99.90
30336;DHT22;17142;47.990;7.846;2023-11-21T16:34:20;8.50;99.90
30336;DHT22;17142;47.990;7.846;2023-11-21T16:36:49;8.50;99.90
30336;DHT22;17142;47.990;7.846;2023-11-21T16:39:15;8.50;99.90
30336;DHT22;17142;47.990;7.846;2023-11-21T16:41:44;8.50;99.90
30336;DHT22;17142;47.990;7.846;2023-11-21T16:46:39;8.50;99.90
30336;DHT22;17142;47.990;7.846;2023-11-21T16:49:06;8.50;99.90
30336;DHT22;17142;47.990;7.846;2023-11-21T16:51:33;8.40;99.90
30336;DHT22;17142;47.990;7.846;2023-11-21T16:54:02;8.50;99.90
30336;DHT22;17142;47.990;7.846;2023-11-21T16:56:27;8.40;99.90
30336;DHT22;17142;47.990;7.846;2023-11-21T16:58:53;8.50;99.90
30336;DHT22;17142;47.990;7.846;2023-11-21T17:01:19;8.40;99.90
30336;DHT22;17142;47.990;7.846;2023-11-21T17:03:52;8.40;99.90
30336;DHT22;17142;47.990;7.846;2023-11-21T17:06:21;8.40;99.90
30336;DHT22;17142;47.990;7.846;2023-11-21T17:08:48;8.40;99.90
30336;DHT22;17142;47.990;7.846;2023-11-21T17:11:14;8.40;99.90
30336;DHT22;17142;47.990;7.846;2023-11-21T17:13:40;8.40;99.90
30336;DHT22;17142;47.990;7.846;2023-11-21T17:16:09;8.30;99.90
30336;DHT22;17142;47.990;7.846;2023-11-21T17:18:37;8.30;99.90
30336;DHT22;17142;47.990;7.846;2023-11-21T17:21:03;8.30;99.90
30336;DHT22;17142;47.990;7.846;2023-11-21T17:23:30;8.30;99.90
30336;DHT22;17142;47.990;7.846;2023-11-21T17:25:58;8.40;99.90
30336;DHT22;17142;47.990;7.846;2023-11-21T17:28:24;8.40;99.90
30336;DHT22;17142;47.990;7.846;2023-11-21T17:30:49;8.40;99.90
30336;DHT22;17142;47.990;7.846;2023-11-21T17:33:15;8.40;99.90
30336;DHT22;17142;47.990;7.846;2023-11-21T17:35:41;8.40;99.90
30336;DHT22;17142;47.990;7.846;2023-11-21T17:38:08;8.50;99.90
30336;DHT22;17142;47.990;7.846;2023-11-21T17:40:34;8.40;99.90
30336;DHT22;17142;47.990;7.846;2023-11-21T17:43:01;8.40;99.90
30336;DHT22;17142;47.990;7.846;2023-11-21T17:45:26;8.50;99.90
30336;DHT22;17142;47.990;7.846;2023-11-21T17:47:52;8.40;99.90
30336;DHT22;17142;47.990;7.846;2023-11-21T17:50:22;8.40;99.90
30336;DHT22;17142;47.990;7.846;2023-11-21T17:52:48;8.40;99.90
30336;DHT22;17142;47.990;7.846;2023-11-21T17:55:18;8.30;99.90
30336;DHT22;17142;47.990;7.846;2023-11-21T17:57:44;8.40;99.90
30336;DHT22;17142;47.990;7.846;2023-11-21T18:00:12;8.40;99.90
30336;DHT22;17142;47.990;7.846;2023-11-21T18:02:38;8.40;99.90
30336;DHT22;17142;47.990;7.846;2023-11-21T18:05:09;8.40;99.90
30336;DHT22;17142;47.990;7.846;2023-11-21T18:07:38;8.40;99.90
30336;DHT22;17142;47.990;7.846;2023-11-21T18:10:05;8.40;99.90
30336;DHT22;17142;47.990;7.846;2023-11-21T18:12:31;8.40;99.90
30336;DHT22;17142;47.990;7.846;2023-11-21T18:14:59;8.40;99.90
30336;DHT22;17142;47.990;7.846;2023-11-21T18:17:28;8.40;99.90
30336;DHT22;17142;47.990;7.846;2023-11-21T18:19:53;8.40;99.90
30336;DHT22;17142;47.990;7.846;2023-11-21T18:22:22;8.40;99.90
30336;DHT22;17142;47.990;7.846;2023-11-21T18:24:50;8.40;99.90
30336;DHT22;17142;47.990;7.846;2023-11-21T18:27:21;8.40;99.90
30336;DHT22;17142;47.990;7.846;2023-11-21T18:29:54;8.40;99.90
30336;DHT22;17142;47.990;7.846;2023-11-21T18:32:22;8.40;99.90
30336;DHT22;17142;47.990;7.846;2023-11-21T18:34:51;8.40;99.90
30336;DHT22;17142;47.990;7.846;2023-11-21T18:37:17;8.40;99.90
30336;DHT22;17142;47.990;7.846;2023-11-21T18:39:46;8.40;99.90
30336;DHT22;17142;47.990;7.846;2023-11-21T18:42:15;8.40;99.90
30336;DHT22;17142;47.990;7.846;2023-11-21T18:44:42;8.30;99.90
30336;DHT22;17142;47.990;7.846;2023-11-21T18:47:07;8.30;99.90
30336;DHT22;17142;47.990;7.846;2023-11-21T18:49:37;8.40;99.90
30336;DHT22;17142;47.990;7.846;2023-11-21T18:52:03;8.30;99.90
30336;DHT22;17142;47.990;7.846;2023-11-21T18:54:29;8.40;99.90
30336;DHT22;17142;47.990;7.846;2023-11-21T18:56:54;8.30;99.90
30336;DHT22;17142;47.990;7.846;2023-11-21T18:59:22;8.40;99.90
30336;DHT22;17142;47.990;7.846;2023-11-21T19:01:50;8.40;99.90
30336;DHT22;17142;47.990;7.846;2023-11-21T19:04:16;8.40;99.90
30336;DHT22;17142;47.990;7.846;2023-11-21T19:06:48;8.40;99.90
30336;DHT22;17142;47.990;7.846;2023-11-21T19:09:16;8.40;99.90
30336;DHT22;17142;47.990;7.846;2023-11-21T19:11:42;8.40;99.90
30336;DHT22;17142;47.990;7.846;2023-11-21T19:14:09;8.40;99.90
30336;DHT22;17142;47.990;7.846;2023-11-21T19:16:35;8.40;99.90
30336;DHT22;17142;47.990;7.846;2023-11-21T19:19:01;8.30;99.90
30336;DHT22;17142;47.990;7.846;2023-11-21T19:21:27;8.40;99.90
30336;DHT22;17142;47.990;7.846;2023-11-21T19:23:53;8.40;99.90
30336;DHT22;17142;47.990;7.846;2023-11-21T19:26:22;8.30;99.90
30336;DHT22;17142;47.990;7.846;2023-11-21T19:28:47;8.30;99.90
30336;DHT22;17142;47.990;7.846;2023-11-21T19:31:20;8.30;99.90
30336;DHT22;17142;47.990;7.846;2023-11-21T19:33:46;8.30;99.90
30336;DHT22;17142;47.990;7.846;2023-11-21T19:36:15;8.20;99.90
30336;DHT22;17142;47.990;7.846;2023-11-21T19:38:43;8.20;99.90
30336;DHT22;17142;47.990;7.846;2023-11-21T19:41:16;8.20;99.90
30336;DHT22;17142;47.990;7.846;2023-11-21T19:43:45;8.10;99.90
30336;DHT22;17142;47.990;7.846;2023-11-21T19:46:12;8.10;99.90
30336;DHT22;17142;47.990;7.846;2023-11-21T19:48:38;8.10;99.90
30336;DHT22;17142;47.990;7.846;2023-11-21T19:51:11;8.10;99.90
30336;DHT22;17142;47.990;7.846;2023-11-21T19:53:39;8.10;99.90
30336;DHT22;17142;47.990;7.846;2023-11-21T19:56:07;8.10;99.90
30336;DHT22;17142;47.990;7.846;2023-11-21T19:58:38;8.10;99.90
30336;DHT22;17142;47.990;7.846;2023-11-21T20:01:07;8.00;99.90
30336;DHT22;17142;47.990;7.846;2023-11-21T20:03:33;8.10;99.90
30336;DHT22;17142;47.990;7.846;2023-11-21T20:06:00;8.00;99.90
30336;DHT22;17142;47.990;7.846;2023-11-21T20:08:27;8.00;99.90
30336;DHT22;17142;47.990;7.846;2023-11-21T20:10:56;7.90;99.90
30336;DHT22;17142;47.990;7.846;2023-11-21T20:13:22;7.90;99.90
30336;DHT22;17142;47.990;7.846;2023-11-21T20:15:50;7.90;99.90
30336;DHT22;17142;47.990;7.846;2023-11-21T20:18:16;7.90;99.90
30336;DHT22;17142;47.990;7.846;2023-11-21T20:20:42;7.90;99.90
30336;DHT22;17142;47.990;7.846;2023-11-21T20:23:10;7.90;99.90
30336;DHT22;17142;47.990;7.846;2023-11-21T20:25:36;7.90;99.90
30336;DHT22;17142;47.990;7.846;2023-11-21T20:28:02;7.90;99.90
30336;DHT22;17142;47.990;7.846;2023-11-21T20:30:32;8.00;99.90
30336;DHT22;17142;47.990;7.846;2023-11-21T20:32:59;8.00;99.90
30336;DHT22;17142;47.990;7.846;2023-11-21T20:35:28;8.00;99.90
30336;DHT22;17142;47.990;7.846;2023-11-21T20:37:55;8.10;99.90
30336;DHT22;17142;47.990;7.846;2023-11-21T20:40:20;8.20;99.90
30336;DHT22;17142;47.990;7.846;2023-11-21T20:42:46;8.10;99.90
30336;DHT22;17142;47.990;7.846;2023-11-21T20:45:14;8.10;99.90
30336;DHT22;17142;47.990;7.846;2023-11-21T20:47:42;8.10;99.90
30336;DHT22;17142;47.990;7.846;2023-11-21T20:50:09;8.10;99.90
30336;DHT22;17142;47.990;7.846;2023-11-21T20:52:35;8.10;99.90
30336;DHT22;17142;47.990;7.846;2023-11-21T20:55:00;8.20;99.90
30336;DHT22;17142;47.990;7.846;2023-11-21T20:57:28;8.10;99.90
30336;DHT22;17142;47.990;7.846;2023-11-21T20:59:54;8.10;99.90
30336;DHT22;17142;47.990;7.846;2023-11-21T21:02:20;8.00;99.90
30336;DHT22;17142;47.990;7.846;2023-11-21T21:04:48;8.00;99.90
30336;DHT22;17142;47.990;7.846;2023-11-21T21:07:13;8.00;99.90
30336;DHT22;17142;47.990;7.846;2023-11-21T21:09:39;8.00;99.90
30336;DHT22;17142;47.990;7.846;2023-11-21T21:12:07;8.10;99.90
30336;DHT22;17142;47.990;7.846;2023-11-21T21:14:32;8.10;99.90
30336;DHT22;17142;47.990;7.846;2023-11-21T21:17:00;8.00;99.90
30336;DHT22;17142;47.990;7.846;2023-11-21T21:19:29;8.10;99.90
30336;DHT22;17142;47.990;7.846;2023-11-21T21:21:56;8.10;99.90
30336;DHT22;17142;47.990;7.846;2023-11-21T21:24:21;8.10;99.90
30336;DHT22;17142;47.990;7.846;2023-11-21T21:26:49;8.10;99.90
30336;DHT22;17142;47.990;7.846;2023-11-21T21:29:17;8.10;99.90
30336;DHT22;17142;47.990;7.846;2023-11-21T21:31:47;8.10;99.90
30336;DHT22;17142;47.990;7.846;2023-11-21T21:34:12;8.00;99.90
30336;DHT22;17142;47.990;7.846;2023-11-21T21:36:42;8.00;99.90
30336;DHT22;17142;47.990;7.846;2023-11-21T21:39:12;8.00;99.90
30336;DHT22;17142;47.990;7.846;2023-11-21T21:41:39;8.00;99.90
30336;DHT22;17142;47.990;7.846;2023-11-21T21:44:07;8.00;99.90
30336;DHT22;17142;47.990;7.846;2023-11-21T21:46:33;8.00;99.90
30336;DHT22;17142;47.990;7.846;2023-11-21T21:49:02;8.00;99.90
30336;DHT22;17142;47.990;7.846;2023-11-21T21:51:30;8.00;99.90
30336;DHT22;17142;47.990;7.846;2023-11-21T21:53:56;8.00;99.90
30336;DHT22;17142;47.990;7.846;2023-11-21T21:56:22;8.00;99.90
30336;DHT22;17142;47.990;7.846;2023-11-21T21:58:48;8.00;99.90
30336;DHT22;17142;47.990;7.846;2023-11-21T22:01:20;8.00;99.90
30336;DHT22;17142;47.990;7.846;2023-11-21T22:03:46;7.90;99.90
30336;DHT22;17142;47.990;7.846;2023-11-21T22:06:11;8.00;99.90
30336;DHT22;17142;47.990;7.846;2023-11-21T22:08:38;8.00;99.90
30336;DHT22;17142;47.990;7.846;2023-11-21T22:11:06;8.00;99.90
30336;DHT22;17142;47.990;7.846;2023-11-21T22:13:32;8.00;99.90
30336;DHT22;17142;47.990;7.846;2023-11-21T22:16:01;8.00;99.90
30336;DHT22;17142;47.990;7.846;2023-11-21T22:18:27;8.00;99.90
30336;DHT22;17142;47.990;7.846;2023-11-21T22:20:53;8.10;99.90
30336;DHT22;17142;47.990;7.846;2023-11-21T22:23:18;8.00;99.90
30336;DHT22;17142;47.990;7.846;2023-11-21T22:25:46;8.10;99.90
30336;DHT22;17142;47.990;7.846;2023-11-21T22:28:12;8.10;99.90
30336;DHT22;17142;47.990;7.846;2023-11-21T22:30:37;8.10;99.90
30336;DHT22;17142;47.990;7.846;2023-11-21T22:33:03;8.10;99.90
30336;DHT22;17142;47.990;7.846;2023-11-21T22:35:28;8.00;99.90